sensor_id;sensor_type;location;lat;lon;timestamp;pressure;altitude;pressure_sealevel;temperature;humidity
18137;BME280;9194;42.632;23.298;2024-01-30T00:02:35;94427.44;;;-1.82;100.00
18137;BME280;9194;42.632;23.298;2024-01-30T00:07:36;94427.97;;;-1.90;100.00
18137;BME280;9194;42.632;23.298;2024-01-30T00:12:38;94425.72;;;-2.07;100.00
18137;BME280;9194;42.632;23.298;2024-01-30T00:17:39;94431.53;;;-2.18;100.00
18137;BME280;9194;42.632;23.298;2024-01-30T00:22:40;94449.28;;;-2.16;100.00
18137;BME280;9194;42.632;23.298;2024-01-30T00:27:41;94434.16;;;-2.19;100.00
18137;BME280;9194;42.632;23.298;2024-01-30T00:32:43;94445.91;;;-2.17;100.00
18137;BME280;9194;42.632;23.298;2024-01-30T00:37:44;94446.91;;;-2.19;100.00
18137;BME280;9194;42.632;23.298;2024-01-30T00:42:45;94429.78;;;-2.30;100.00
18137;BME280;9194;42.632;23.298;2024-01-30T00:47:46;94433.06;;;-2.28;100.00
18137;BME280;9194;42.632;23.298;2024-01-30T00:52:48;94423.66;;;-2.15;100.00
18137;BME280;9194;42.632;23.298;2024-01-30T00:57:49;94435.41;;;-1.99;100.00
18137;BME280;9194;42.632;23.298;2024-01-30T01:02:50;94420.63;;;-1.94;100.00
18137;BME280;9194;42.632;23.298;2024-01-30T01:07:51;94419.78;;;-2.08;100.00
18137;BME280;9194;42.632;23.298;2024-01-30T01:12:53;94421.41;;;-2.19;100.00
18137;BME280;9194;42.632;23.298;2024-01-30T01:17:54;94426.88;;;-2.38;100.00
18137;BME280;9194;42.632;23.298;2024-01-30T01:22:55;94417.09;;;-2.57;100.00
18137;BME280;9194;42.632;23.298;2024-01-30T01:27:56;94421.84;;;-2.65;100.00
18137;BME280;9194;42.632;23.298;2024-01-30T01:32:58;94428.88;;;-2.68;100.00
18137;BME280;9194;42.632;23.298;2024-01-30T01:38:02;94421.94;;;-2.66;100.00
18137;BME280;9194;42.632;23.298;2024-01-30T01:43:04;94439.09;;;-2.68;100.00
18137;BME280;9194;42.632;23.298;2024-01-30T01:48:07;94429.97;;;-2.72;100.00
18137;BME280;9194;42.632;23.298;2024-01-30T01:53:09;94426.56;;;-2.59;100.00
18137;BME280;9194;42.632;23.298;2024-01-30T01:58:10;94423.31;;;-2.48;99.91
18137;BME280;9194;42.632;23.298;2024-01-30T02:03:13;94434.06;;;-2.30;100.00
18137;BME280;9194;42.632;23.298;2024-01-30T02:08:17;94427.13;;;-2.28;100.00
18137;BME280;9194;42.632;23.298;2024-01-30T02:13:18;94437.53;;;-2.19;100.00
18137;BME280;9194;42.632;23.298;2024-01-30T02:18:20;94436.81;;;-2.08;100.00
18137;BME280;9194;42.632;23.298;2024-01-30T02:23:40;94431.72;;;-2.08;100.00
18137;BME280;9194;42.632;23.298;2024-01-30T02:28:42;94428.34;;;-2.09;100.00
18137;BME280;9194;42.632;23.298;2024-01-30T02:33:43;94426.13;;;-2.00;100.00
18137;BME280;9194;42.632;23.298;2024-01-30T02:38:44;94431.94;;;-1.98;100.00
18137;BME280;9194;42.632;23.298;2024-01-30T02:43:47;94421.22;;;-2.03;99.57
18137;BME280;9194;42.632;23.298;2024-01-30T02:48:48;94429.81;;;-2.04;100.00
18137;BME280;9194;42.632;23.298;2024-01-30T02:53:49;94422.97;;;-2.04;100.00
18137;BME280;9194;42.632;23.298;2024-01-30T02:58:51;94429.69;;;-2.03;99.73
18137;BME280;9194;42.632;23.298;2024-01-30T03:03:52;94428.78;;;-2.02;98.90
18137;BME280;9194;42.632;23.298;2024-01-30T03:09:05;94423.66;;;-2.02;100.00
18137;BME280;9194;42.632;23.298;2024-01-30T03:14:06;94420.28;;;-2.02;100.00
18137;BME280;9194;42.632;23.298;2024-01-30T03:19:09;94425.31;;;-2.01;100.00
18137;BME280;9194;42.632;23.298;2024-01-30T03:24:10;94418.56;;;-2.02;99.51
18137;BME280;9194;42.632;23.298;2024-01-30T03:29:11;94420.19;;;-2.01;100.00
18137;BME280;9194;42.632;23.298;2024-01-30T03:34:13;94418.47;;;-2.00;100.00
18137;BME280;9194;42.632;23.298;2024-01-30T03:39:14;94414.09;;;-1.98;98.43
18137;BME280;9194;42.632;23.298;2024-01-30T03:44:16;94406.72;;;-2.03;98.09
18137;BME280;9194;42.632;23.298;2024-01-30T03:49:17;94414.59;;;-2.06;97.23
18137;BME280;9194;42.632;23.298;2024-01-30T03:54:18;94399.59;;;-2.11;99.07
18137;BME280;9194;42.632;23.298;2024-01-30T03:59:19;94401.34;;;-2.11;98.50
18137;BME280;9194;42.632;23.298;2024-01-30T04:04:24;94399.69;;;-2.12;97.26
18137;BME280;9194;42.632;23.298;2024-01-30T04:09:26;94404.16;;;-2.03;97.12
18137;BME280;9194;42.632;23.298;2024-01-30T04:14:29;94403.66;;;-2.08;96.75
18137;BME280;9194;42.632;23.298;2024-01-30T04:19:30;94393.34;;;-2.19;96.04
18137;BME280;9194;42.632;23.298;2024-01-30T04:24:32;94394.50;;;-2.23;95.80
18137;BME280;9194;42.632;23.298;2024-01-30T04:29:33;94395.19;;;-2.21;94.66
18137;BME280;9194;42.632;23.298;2024-01-30T04:34:36;94408.75;;;-2.21;94.05
18137;BME280;9194;42.632;23.298;2024-01-30T04:39:37;94413.97;;;-2.22;92.90
18137;BME280;9194;42.632;23.298;2024-01-30T04:44:38;94412.41;;;-2.37;93.36
18137;BME280;9194;42.632;23.298;2024-01-30T04:49:40;94415.66;;;-2.48;92.98
18137;BME280;9194;42.632;23.298;2024-01-30T04:54:41;94429.44;;;-2.51;92.21
18137;BME280;9194;42.632;23.298;2024-01-30T04:59:42;94426.66;;;-2.60;92.52
18137;BME280;9194;42.632;23.298;2024-01-30T05:04:44;94424.50;;;-2.66;93.19
18137;BME280;9194;42.632;23.298;2024-01-30T05:09:45;94431.75;;;-2.60;92.29
18137;BME280;9194;42.632;23.298;2024-01-30T05:14:46;94431.34;;;-2.54;92.66
18137;BME280;9194;42.632;23.298;2024-01-30T05:19:47;94438.09;;;-2.53;92.38
18137;BME280;9194;42.632;23.298;2024-01-30T05:24:49;94445.31;;;-2.60;93.12
18137;BME280;9194;42.632;23.298;2024-01-30T05:29:50;94454.25;;;-2.67;97.21
18137;BME280;9194;42.632;23.298;2024-01-30T05:34:51;94454.00;;;-2.62;97.34
18137;BME280;9194;42.632;23.298;2024-01-30T05:39:53;94455.06;;;-2.66;97.23
18137;BME280;9194;42.632;23.298;2024-01-30T05:44:54;94452.72;;;-2.69;100.00
18137;BME280;9194;42.632;23.298;2024-01-30T05:49:55;94448.63;;;-2.72;100.00
18137;BME280;9194;42.632;23.298;2024-01-30T05:54:56;94436.72;;;-2.71;100.00
18137;BME280;9194;42.632;23.298;2024-01-30T05:59:58;94444.44;;;-2.85;100.00
18137;BME280;9194;42.632;23.298;2024-01-30T06:04:59;94444.69;;;-2.90;100.00
18137;BME280;9194;42.632;23.298;2024-01-30T06:10:00;94442.28;;;-2.92;100.00
18137;BME280;9194;42.632;23.298;2024-01-30T06:15:03;94447.75;;;-2.98;100.00
18137;BME280;9194;42.632;23.298;2024-01-30T06:20:05;94436.09;;;-3.02;100.00
18137;BME280;9194;42.632;23.298;2024-01-30T06:25:06;94450.91;;;-2.94;100.00
18137;BME280;9194;42.632;23.298;2024-01-30T06:30:08;94436.50;;;-2.81;100.00
18137;BME280;9194;42.632;23.298;2024-01-30T06:35:10;94443.78;;;-2.62;98.91
18137;BME280;9194;42.632;23.298;2024-01-30T06:40:11;94440.00;;;-2.69;96.00
18137;BME280;9194;42.632;23.298;2024-01-30T06:45:13;94458.16;;;-2.61;95.53
18137;BME280;9194;42.632;23.298;2024-01-30T06:50:14;94455.22;;;-2.55;92.96
18137;BME280;9194;42.632;23.298;2024-01-30T06:55:16;94449.72;;;-2.49;92.34
18137;BME280;9194;42.632;23.298;2024-01-30T07:00:17;94444.22;;;-2.43;91.68
18137;BME280;9194;42.632;23.298;2024-01-30T07:05:20;94452.50;;;-2.39;91.23
18137;BME280;9194;42.632;23.298;2024-01-30T07:10:25;94453.34;;;-2.26;91.80
18137;BME280;9194;42.632;23.298;2024-01-30T07:15:27;94452.44;;;-2.13;89.51
18137;BME280;9194;42.632;23.298;2024-01-30T07:20:28;94449.81;;;-1.98;87.94
18137;BME280;9194;42.632;23.298;2024-01-30T07:25:31;94459.63;;;-1.92;87.30
18137;BME280;9194;42.632;23.298;2024-01-30T07:30:32;94451.41;;;-1.97;87.60
18137;BME280;9194;42.632;23.298;2024-01-30T07:35:34;94452.25;;;-1.84;87.12
18137;BME280;9194;42.632;23.298;2024-01-30T07:40:36;94442.13;;;-1.73;85.42
18137;BME280;9194;42.632;23.298;2024-01-30T07:45:37;94439.47;;;-1.46;85.02
18137;BME280;9194;42.632;23.298;2024-01-30T07:50:39;94440.47;;;-1.36;82.10
18137;BME280;9194;42.632;23.298;2024-01-30T07:55:40;94436.88;;;-1.34;80.55
18137;BME280;9194;42.632;23.298;2024-01-30T08:00:42;94450.63;;;-1.11;80.22
18137;BME280;9194;42.632;23.298;2024-01-30T08:05:43;94432.19;;;-1.03;78.50
18137;BME280;9194;42.632;23.298;2024-01-30T08:10:44;94439.91;;;-0.92;78.60
18137;BME280;9194;42.632;23.298;2024-01-30T08:15:46;94437.56;;;-0.82;77.30
18137;BME280;9194;42.632;23.298;2024-01-30T08:20:47;94441.16;;;-0.98;77.65
18137;BME280;9194;42.632;23.298;2024-01-30T08:25:48;94454.19;;;-0.77;78.21
18137;BME280;9194;42.632;23.298;2024-01-30T08:30:50;94432.53;;;-0.84;77.31
18137;BME280;9194;42.632;23.298;2024-01-30T08:35:51;94453.63;;;-0.69;78.20
18137;BME280;9194;42.632;23.298;2024-01-30T08:40:52;94444.03;;;-0.66;77.82
18137;BME280;9194;42.632;23.298;2024-01-30T08:45:53;94451.25;;;-0.60;76.63
18137;BME280;9194;42.632;23.298;2024-01-30T08:50:55;94455.88;;;-0.41;77.64
18137;BME280;9194;42.632;23.298;2024-01-30T08:55:56;94450.41;;;-0.36;76.99
18137;BME280;9194;42.632;23.298;2024-01-30T09:01:01;94456.63;;;-0.17;74.76
18137;BME280;9194;42.632;23.298;2024-01-30T09:06:08;94462.75;;;0.05;73.48
18137;BME280;9194;42.632;23.298;2024-01-30T09:11:13;94456.81;;;0.04;74.56
18137;BME280;9194;42.632;23.298;2024-01-30T09:16:15;94460.06;;;0.06;71.68
18137;BME280;9194;42.632;23.298;2024-01-30T09:21:17;94455.91;;;0.05;71.53
18137;BME280;9194;42.632;23.298;2024-01-30T09:26:18;94450.78;;;0.05;72.21
18137;BME280;9194;42.632;23.298;2024-01-30T09:31:19;94432.63;;;0.19;72.41
18137;BME280;9194;42.632;23.298;2024-01-30T09:36:21;94442.97;;;0.18;73.52
18137;BME280;9194;42.632;23.298;2024-01-30T09:41:24;94440.19;;;0.10;73.62
18137;BME280;9194;42.632;23.298;2024-01-30T09:46:27;94444.41;;;0.22;72.17
18137;BME280;9194;42.632;23.298;2024-01-30T09:51:29;94429.63;;;0.36;71.49
18137;BME280;9194;42.632;23.298;2024-01-30T09:56:31;94427.41;;;0.65;70.86
18137;BME280;9194;42.632;23.298;2024-01-30T10:01:34;94425.31;;;0.93;68.23
18137;BME280;9194;42.632;23.298;2024-01-30T10:06:37;94429.16;;;0.87;69.18
18137;BME280;9194;42.632;23.298;2024-01-30T10:11:38;94422.56;;;1.05;69.20
18137;BME280;9194;42.632;23.298;2024-01-30T10:16:39;94402.84;;;1.17;67.00
18137;BME280;9194;42.632;23.298;2024-01-30T10:21:41;94408.59;;;1.09;66.07
18137;BME280;9194;42.632;23.298;2024-01-30T10:26:43;94415.72;;;0.95;67.72
18137;BME280;9194;42.632;23.298;2024-01-30T10:31:45;94409.13;;;0.70;68.89
18137;BME280;9194;42.632;23.298;2024-01-30T10:36:48;94410.88;;;0.80;68.59
18137;BME280;9194;42.632;23.298;2024-01-30T10:41:54;94406.97;;;1.08;69.76
18137;BME280;9194;42.632;23.298;2024-01-30T10:47:00;94412.81;;;1.10;69.28
18137;BME280;9194;42.632;23.298;2024-01-30T10:52:05;94411.84;;;1.11;68.99
18137;BME280;9194;42.632;23.298;2024-01-30T10:57:07;94407.97;;;0.74;72.09
18137;BME280;9194;42.632;23.298;2024-01-30T11:02:10;94393.66;;;0.49;72.16
18137;BME280;9194;42.632;23.298;2024-01-30T11:07:19;94388.06;;;0.33;75.18
18137;BME280;9194;42.632;23.298;2024-01-30T11:12:25;94382.34;;;0.74;75.74
18137;BME280;9194;42.632;23.298;2024-01-30T11:17:27;94376.31;;;1.07;70.58
18137;BME280;9194;42.632;23.298;2024-01-30T11:22:30;94372.88;;;1.17;69.79
18137;BME280;9194;42.632;23.298;2024-01-30T11:27:32;94378.81;;;0.86;71.07
18137;BME280;9194;42.632;23.298;2024-01-30T11:32:33;94383.50;;;0.81;72.24
18137;BME280;9194;42.632;23.298;2024-01-30T11:37:37;94374.81;;;1.04;69.51
18137;BME280;9194;42.632;23.298;2024-01-30T11:42:40;94372.22;;;1.15;70.41
18137;BME280;9194;42.632;23.298;2024-01-30T11:47:42;94369.69;;;1.04;71.73
18137;BME280;9194;42.632;23.298;2024-01-30T11:52:43;94372.75;;;0.76;73.32
18137;BME280;9194;42.632;23.298;2024-01-30T11:57:44;94374.06;;;0.81;73.53
18137;BME280;9194;42.632;23.298;2024-01-30T12:02:49;94366.63;;;0.67;73.93
18137;BME280;9194;42.632;23.298;2024-01-30T12:07:51;94354.16;;;0.63;73.59
18137;BME280;9194;42.632;23.298;2024-01-30T12:12:53;94337.84;;;0.75;75.01
18137;BME280;9194;42.632;23.298;2024-01-30T12:18:04;94334.91;;;0.79;74.87
18137;BME280;9194;42.632;23.298;2024-01-30T12:23:06;94327.63;;;0.64;75.99
18137;BME280;9194;42.632;23.298;2024-01-30T12:28:07;94328.56;;;0.52;76.23
18137;BME280;9194;42.632;23.298;2024-01-30T12:33:08;94318.28;;;0.63;76.50
18137;BME280;9194;42.632;23.298;2024-01-30T12:38:11;94303.38;;;0.68;76.17
18137;BME280;9194;42.632;23.298;2024-01-30T12:43:13;94308.50;;;0.68;76.85
18137;BME280;9194;42.632;23.298;2024-01-30T12:48:15;94310.38;;;0.55;75.62
18137;BME280;9194;42.632;23.298;2024-01-30T12:53:16;94312.13;;;0.54;75.79
18137;BME280;9194;42.632;23.298;2024-01-30T12:58:18;94303.41;;;0.57;75.46
18137;BME280;9194;42.632;23.298;2024-01-30T13:03:19;94294.66;;;0.48;75.07
18137;BME280;9194;42.632;23.298;2024-01-30T13:08:21;94300.38;;;0.52;75.52
18137;BME280;9194;42.632;23.298;2024-01-30T13:13:22;94296.81;;;0.32;76.41
18137;BME280;9194;42.632;23.298;2024-01-30T13:18:24;94295.28;;;0.18;78.72
18137;BME280;9194;42.632;23.298;2024-01-30T13:23:25;94290.91;;;-0.02;79.69
18137;BME280;9194;42.632;23.298;2024-01-30T13:28:26;94291.25;;;-0.18;80.21
18137;BME280;9194;42.632;23.298;2024-01-30T13:33:27;94292.03;;;-0.28;82.64
18137;BME280;9194;42.632;23.298;2024-01-30T13:38:29;94294.13;;;-0.33;82.81
18137;BME280;9194;42.632;23.298;2024-01-30T13:43:30;94300.63;;;-0.41;83.13
18137;BME280;9194;42.632;23.298;2024-01-30T13:48:31;94296.91;;;-0.48;83.00
18137;BME280;9194;42.632;23.298;2024-01-30T13:53:33;94310.84;;;-0.52;85.80
18137;BME280;9194;42.632;23.298;2024-01-30T13:58:34;94311.28;;;-0.58;86.06
18137;BME280;9194;42.632;23.298;2024-01-30T14:03:37;94314.53;;;-0.67;86.72
18137;BME280;9194;42.632;23.298;2024-01-30T14:08:38;94316.63;;;-0.72;88.98
18137;BME280;9194;42.632;23.298;2024-01-30T14:13:39;94299.28;;;-0.79;90.10
18137;BME280;9194;42.632;23.298;2024-01-30T14:18:41;94295.88;;;-0.91;94.42
18137;BME280;9194;42.632;23.298;2024-01-30T14:23:42;94298.72;;;-1.07;95.24
18137;BME280;9194;42.632;23.298;2024-01-30T14:28:43;94311.13;;;-1.13;94.55
18137;BME280;9194;42.632;23.298;2024-01-30T14:33:46;94308.78;;;-1.16;92.81
18137;BME280;9194;42.632;23.298;2024-01-30T14:38:48;94314.03;;;-1.18;94.76
18137;BME280;9194;42.632;23.298;2024-01-30T14:43:49;94312.34;;;-1.30;95.69
18137;BME280;9194;42.632;23.298;2024-01-30T14:48:50;94308.56;;;-1.37;96.29
18137;BME280;9194;42.632;23.298;2024-01-30T14:53:52;94323.03;;;-1.49;97.50
18137;BME280;9194;42.632;23.298;2024-01-30T14:58:53;94314.19;;;-1.69;100.00
18137;BME280;9194;42.632;23.298;2024-01-30T15:03:55;94313.09;;;-1.77;100.00
18137;BME280;9194;42.632;23.298;2024-01-30T15:08:56;94314.84;;;-1.90;100.00
18137;BME280;9194;42.632;23.298;2024-01-30T15:13:58;94315.69;;;-2.02;100.00
18137;BME280;9194;42.632;23.298;2024-01-30T15:18:59;94317.56;;;-2.17;100.00
18137;BME280;9194;42.632;23.298;2024-01-30T15:24:01;94326.22;;;-2.20;100.00
18137;BME280;9194;42.632;23.298;2024-01-30T15:29:02;94320.75;;;-2.39;100.00
18137;BME280;9194;42.632;23.298;2024-01-30T15:34:04;94316.66;;;-2.54;100.00
18137;BME280;9194;42.632;23.298;2024-01-30T15:39:05;94327.97;;;-2.58;100.00
18137;BME280;9194;42.632;23.298;2024-01-30T15:44:07;94312.63;;;-2.83;100.00
18137;BME280;9194;42.632;23.298;2024-01-30T15:49:08;94332.22;;;-2.84;100.00
18137;BME280;9194;42.632;23.298;2024-01-30T15:54:09;94334.44;;;-2.92;100.00
18137;BME280;9194;42.632;23.298;2024-01-30T15:59:11;94334.94;;;-3.00;100.00
18137;BME280;9194;42.632;23.298;2024-01-30T16:04:12;94346.25;;;-3.04;100.00
18137;BME280;9194;42.632;23.298;2024-01-30T16:09:13;94355.56;;;-3.17;100.00
18137;BME280;9194;42.632;23.298;2024-01-30T16:14:15;94364.31;;;-3.21;100.00
18137;BME280;9194;42.632;23.298;2024-01-30T16:19:17;94365.41;;;-3.25;100.00
18137;BME280;9194;42.632;23.298;2024-01-30T16:24:18;94364.06;;;-3.31;100.00
18137;BME280;9194;42.632;23.298;2024-01-30T16:29:23;94365.09;;;-3.33;100.00
18137;BME280;9194;42.632;23.298;2024-01-30T16:34:24;94354.63;;;-3.43;100.00
18137;BME280;9194;42.632;23.298;2024-01-30T16:39:25;94364.22;;;-3.46;100.00
18137;BME280;9194;42.632;23.298;2024-01-30T16:44:27;94351.41;;;-3.59;100.00
18137;BME280;9194;42.632;23.298;2024-01-30T16:49:28;94360.06;;;-3.61;100.00
18137;BME280;9194;42.632;23.298;2024-01-30T16:54:29;94362.44;;;-3.73;100.00
18137;BME280;9194;42.632;23.298;2024-01-30T16:59:30;94361.53;;;-3.72;100.00
18137;BME280;9194;42.632;23.298;2024-01-30T17:04:32;94369.16;;;-3.72;100.00
18137;BME280;9194;42.632;23.298;2024-01-30T17:09:34;94363.19;;;-3.85;100.00
18137;BME280;9194;42.632;23.298;2024-01-30T17:14:35;94371.19;;;-3.91;100.00
18137;BME280;9194;42.632;23.298;2024-01-30T17:19:41;94365.38;;;-3.93;100.00
18137;BME280;9194;42.632;23.298;2024-01-30T17:24:43;94354.22;;;-4.04;100.00
18137;BME280;9194;42.632;23.298;2024-01-30T17:29:44;94357.84;;;-4.08;100.00
18137;BME280;9194;42.632;23.298;2024-01-30T17:34:45;94358.69;;;-4.08;100.00
18137;BME280;9194;42.632;23.298;2024-01-30T17:39:47;94375.00;;;-4.12;100.00
18137;BME280;9194;42.632;23.298;2024-01-30T17:44:49;94368.75;;;-4.21;100.00
18137;BME280;9194;42.632;23.298;2024-01-30T17:49:50;94370.03;;;-4.13;100.00
18137;BME280;9194;42.632;23.298;2024-01-30T17:54:51;94370.03;;;-4.13;100.00
18137;BME280;9194;42.632;23.298;2024-01-30T17:59:53;94376.91;;;-4.16;100.00
18137;BME280;9194;42.632;23.298;2024-01-30T18:04:54;94362.84;;;-4.21;100.00
18137;BME280;9194;42.632;23.298;2024-01-30T18:09:55;94367.28;;;-4.25;100.00
18137;BME280;9194;42.632;23.298;2024-01-30T18:14:56;94361.03;;;-4.33;100.00
18137;BME280;9194;42.632;23.298;2024-01-30T18:19:58;94358.28;;;-4.30;100.00
18137;BME280;9194;42.632;23.298;2024-01-30T18:25:00;94354.38;;;-4.36;100.00
18137;BME280;9194;42.632;23.298;2024-01-30T18:30:01;94359.66;;;-4.39;100.00
18137;BME280;9194;42.632;23.298;2024-01-30T18:35:03;94363.03;;;-4.38;100.00
18137;BME280;9194;42.632;23.298;2024-01-30T18:40:05;94356.03;;;-4.49;100.00
18137;BME280;9194;42.632;23.298;2024-01-30T18:45:07;94351.84;;;-4.50;100.00
18137;BME280;9194;42.632;23.298;2024-01-30T18:50:08;94351.03;;;-4.50;100.00
18137;BME280;9194;42.632;23.298;2024-01-30T18:55:10;94349.81;;;-4.59;100.00
18137;BME280;9194;42.632;23.298;2024-01-30T19:00:12;94347.56;;;-4.64;100.00
18137;BME280;9194;42.632;23.298;2024-01-30T19:05:13;94336.75;;;-4.67;100.00
18137;BME280;9194;42.632;23.298;2024-01-30T19:10:15;94343.72;;;-4.71;100.00
18137;BME280;9194;42.632;23.298;2024-01-30T19:15:16;94356.97;;;-4.80;100.00
18137;BME280;9194;42.632;23.298;2024-01-30T19:20:18;94356.91;;;-4.94;100.00
18137;BME280;9194;42.632;23.298;2024-01-30T19:25:19;94359.66;;;-4.83;100.00
18137;BME280;9194;42.632;23.298;2024-01-30T19:30:20;94343.72;;;-4.85;100.00
18137;BME280;9194;42.632;23.298;2024-01-30T19:35:22;94350.25;;;-4.81;100.00
18137;BME280;9194;42.632;23.298;2024-01-30T19:40:24;94338.78;;;-4.88;100.00
18137;BME280;9194;42.632;23.298;2024-01-30T19:45:25;94347.03;;;-4.99;100.00
18137;BME280;9194;42.632;23.298;2024-01-30T19:50:26;94340.16;;;-4.97;100.00
18137;BME280;9194;42.632;23.298;2024-01-30T19:55:28;94349.13;;;-4.91;100.00
18137;BME280;9194;42.632;23.298;2024-01-30T20:00:30;94337.25;;;-4.90;100.00
18137;BME280;9194;42.632;23.298;2024-01-30T20:05:31;94334.81;;;-4.92;100.00
18137;BME280;9194;42.632;23.298;2024-01-30T20:10:33;94340.09;;;-4.81;100.00
18137;BME280;9194;42.632;23.298;2024-01-30T20:15:34;94341.53;;;-4.91;100.00
18137;BME280;9194;42.632;23.298;2024-01-30T20:20:35;94338.97;;;-4.91;100.00
18137;BME280;9194;42.632;23.298;2024-01-30T20:25:37;94333.72;;;-4.88;100.00
18137;BME280;9194;42.632;23.298;2024-01-30T20:30:39;94338.97;;;-4.91;100.00
18137;BME280;9194;42.632;23.298;2024-01-30T20:35:40;94326.91;;;-5.02;100.00
18137;BME280;9194;42.632;23.298;2024-01-30T20:40:41;94328.50;;;-5.01;100.00
18137;BME280;9194;42.632;23.298;2024-01-30T20:45:46;94324.53;;;-5.05;100.00
18137;BME280;9194;42.632;23.298;2024-01-30T20:50:47;94329.13;;;-5.11;100.00
18137;BME280;9194;42.632;23.298;2024-01-30T20:55:48;94329.88;;;-5.09;100.00
18137;BME280;9194;42.632;23.298;2024-01-30T21:00:49;94331.16;;;-5.02;100.00
18137;BME280;9194;42.632;23.298;2024-01-30T21:05:51;94320.81;;;-4.99;100.00
18137;BME280;9194;42.632;23.298;2024-01-30T21:10:52;94325.19;;;-5.01;100.00
18137;BME280;9194;42.632;23.298;2024-01-30T21:15:53;94315.38;;;-5.07;100.00
18137;BME280;9194;42.632;23.298;2024-01-30T21:20:55;94325.06;;;-5.00;100.00
18137;BME280;9194;42.632;23.298;2024-01-30T21:25:56;94318.63;;;-5.05;100.00
18137;BME280;9194;42.632;23.298;2024-01-30T21:30:59;94314.00;;;-5.13;100.00
18137;BME280;9194;42.632;23.298;2024-01-30T21:36:00;94318.41;;;-5.16;100.00
18137;BME280;9194;42.632;23.298;2024-01-30T21:41:01;94302.91;;;-5.12;100.00
18137;BME280;9194;42.632;23.298;2024-01-30T21:46:03;94308.44;;;-5.19;100.00
18137;BME280;9194;42.632;23.298;2024-01-30T21:51:06;94308.22;;;-5.30;100.00
18137;BME280;9194;42.632;23.298;2024-01-30T21:56:07;94304.94;;;-5.32;100.00
18137;BME280;9194;42.632;23.298;2024-01-30T22:01:09;94297.16;;;-5.29;100.00
18137;BME280;9194;42.632;23.298;2024-01-30T22:06:10;94305.44;;;-5.26;100.00
18137;BME280;9194;42.632;23.298;2024-01-30T22:11:11;94312.63;;;-5.18;100.00
18137;BME280;9194;42.632;23.298;2024-01-30T22:16:13;94302.56;;;-5.20;100.00
18137;BME280;9194;42.632;23.298;2024-01-30T22:21:15;94293.38;;;-5.22;100.00
18137;BME280;9194;42.632;23.298;2024-01-30T22:26:16;94295.75;;;-5.19;100.00
18137;BME280;9194;42.632;23.298;2024-01-30T22:31:18;94291.56;;;-5.20;100.00
18137;BME280;9194;42.632;23.298;2024-01-30T22:36:19;94292.56;;;-5.23;100.00
18137;BME280;9194;42.632;23.298;2024-01-30T22:41:24;94287.00;;;-5.29;100.00
18137;BME280;9194;42.632;23.298;2024-01-30T22:46:25;94288.72;;;-5.30;100.00
18137;BME280;9194;42.632;23.298;2024-01-30T22:51:26;94289.72;;;-5.32;100.00
18137;BME280;9194;42.632;23.298;2024-01-30T22:56:29;94273.50;;;-5.30;100.00
18137;BME280;9194;42.632;23.298;2024-01-30T23:01:30;94272.72;;;-5.30;100.00
18137;BME280;9194;42.632;23.298;2024-01-30T23:06:32;94263.88;;;-5.39;100.00
18137;BME280;9194;42.632;23.298;2024-01-30T23:11:33;94271.69;;;-5.28;100.00
18137;BME280;9194;42.632;23.298;2024-01-30T23:16:34;94249.53;;;-5.24;100.00
18137;BME280;9194;42.632;23.298;2024-01-30T23:21:36;94257.63;;;-5.33;100.00
18137;BME280;9194;42.632;23.298;2024-01-30T23:26:40;94251.03;;;-5.36;100.00
18137;BME280;9194;42.632;23.298;2024-01-30T23:31:42;94247.84;;;-5.40;100.00
18137;BME280;9194;42.632;23.298;2024-01-30T23:36:44;94254.19;;;-5.32;100.00
18137;BME280;9194;42.632;23.298;2024-01-30T23:41:46;94244.19;;;-5.50;100.00
18137;BME280;9194;42.632;23.298;2024-01-30T23:46:47;94250.16;;;-5.51;100.00
18137;BME280;9194;42.632;23.298;2024-01-30T23:51:49;94238.56;;;-5.55;100.00
18137;BME280;9194;42.632;23.298;2024-01-30T23:56:50;94238.56;;;-5.55;100.00
